sensor_id;sensor_type;location;lat;lon;timestamp;temperature;humidity
2579;DHT22;1299;48.282;14.398;2022-07-29T00:00:22;20.60;99.90
2579;DHT22;1299;48.282;14.398;2022-07-29T00:02:49;20.50;99.90
2579;DHT22;1299;48.282;14.398;2022-07-29T00:05:16;20.50;99.90
2579;DHT22;1299;48.282;14.398;2022-07-29T00:07:45;20.50;99.90
2579;DHT22;1299;48.282;14.398;2022-07-29T00:10:12;20.50;99.90
2579;DHT22;1299;48.282;14.398;2022-07-29T00:12:39;20.50;99.90
2579;DHT22;1299;48.282;14.398;2022-07-29T00:15:08;20.40;99.90
2579;DHT22;1299;48.282;14.398;2022-07-29T00:17:35;20.30;99.90
2579;DHT22;1299;48.282;14.398;2022-07-29T00:20:03;20.30;99.90
2579;DHT22;1299;48.282;14.398;2022-07-29T00:22:31;20.40;99.90
2579;DHT22;1299;48.282;14.398;2022-07-29T00:25:00;20.50;99.90
2579;DHT22;1299;48.282;14.398;2022-07-29T00:27:28;20.50;99.90
2579;DHT22;1299;48.282;14.398;2022-07-29T00:29:55;20.50;99.90
2579;DHT22;1299;48.282;14.398;2022-07-29T00:32:22;20.40;99.90
2579;DHT22;1299;48.282;14.398;2022-07-29T00:34:49;20.50;99.90
2579;DHT22;1299;48.282;14.398;2022-07-29T00:37:34;20.10;99.90
2579;DHT22;1299;48.282;14.398;2022-07-29T00:40:03;20.10;99.90
2579;DHT22;1299;48.282;14.398;2022-07-29T00:42:31;20.00;99.90
2579;DHT22;1299;48.282;14.398;2022-07-29T00:45:08;20.00;99.90
2579;DHT22;1299;48.282;14.398;2022-07-29T00:47:36;20.00;99.90
2579;DHT22;1299;48.282;14.398;2022-07-29T00:50:04;19.90;99.90
2579;DHT22;1299;48.282;14.398;2022-07-29T00:52:33;19.90;99.90
2579;DHT22;1299;48.282;14.398;2022-07-29T00:55:05;19.90;99.90
2579;DHT22;1299;48.282;14.398;2022-07-29T00:57:34;19.90;99.90
2579;DHT22;1299;48.282;14.398;2022-07-29T01:00:03;20.00;99.90
2579;DHT22;1299;48.282;14.398;2022-07-29T01:02:31;19.70;99.90
2579;DHT22;1299;48.282;14.398;2022-07-29T01:04:58;19.70;99.90
2579;DHT22;1299;48.282;14.398;2022-07-29T01:07:27;19.50;99.90
2579;DHT22;1299;48.282;14.398;2022-07-29T01:09:55;19.50;99.90
2579;DHT22;1299;48.282;14.398;2022-07-29T01:12:26;19.40;99.90
2579;DHT22;1299;48.282;14.398;2022-07-29T01:14:55;19.50;99.90
2579;DHT22;1299;48.282;14.398;2022-07-29T01:17:26;19.50;99.90
2579;DHT22;1299;48.282;14.398;2022-07-29T01:20:00;19.50;99.90
2579;DHT22;1299;48.282;14.398;2022-07-29T01:28:50;19.60;99.90
2579;DHT22;1299;48.282;14.398;2022-07-29T01:31:24;19.50;99.90
2579;DHT22;1299;48.282;14.398;2022-07-29T01:34:01;19.50;99.90
2579;DHT22;1299;48.282;14.398;2022-07-29T01:36:32;19.60;99.90
2579;DHT22;1299;48.282;14.398;2022-07-29T01:39:06;19.60;99.90
2579;DHT22;1299;48.282;14.398;2022-07-29T01:41:38;19.40;99.90
2579;DHT22;1299;48.282;14.398;2022-07-29T01:44:15;19.50;99.90
2579;DHT22;1299;48.282;14.398;2022-07-29T01:46:50;19.60;99.90
2579;DHT22;1299;48.282;14.398;2022-07-29T01:49:25;19.60;99.90
2579;DHT22;1299;48.282;14.398;2022-07-29T01:51:58;19.60;99.90
2579;DHT22;1299;48.282;14.398;2022-07-29T01:54:38;19.60;99.90
2579;DHT22;1299;48.282;14.398;2022-07-29T01:57:11;19.60;99.90
2579;DHT22;1299;48.282;14.398;2022-07-29T01:59:43;19.60;99.90
2579;DHT22;1299;48.282;14.398;2022-07-29T02:02:15;19.50;99.90
2579;DHT22;1299;48.282;14.398;2022-07-29T02:04:45;19.50;99.90
2579;DHT22;1299;48.282;14.398;2022-07-29T02:07:18;19.10;99.90
2579;DHT22;1299;48.282;14.398;2022-07-29T02:09:47;19.20;99.90
2579;DHT22;1299;48.282;14.398;2022-07-29T02:12:18;19.30;99.90
2579;DHT22;1299;48.282;14.398;2022-07-29T02:14:50;19.20;99.90
2579;DHT22;1299;48.282;14.398;2022-07-29T02:17:22;19.30;99.90
2579;DHT22;1299;48.282;14.398;2022-07-29T02:19:52;19.30;99.90
2579;DHT22;1299;48.282;14.398;2022-07-29T02:22:21;19.40;99.90
2579;DHT22;1299;48.282;14.398;2022-07-29T02:24:50;19.40;99.90
2579;DHT22;1299;48.282;14.398;2022-07-29T02:27:19;19.40;99.90
2579;DHT22;1299;48.282;14.398;2022-07-29T02:29:49;19.40;99.90
2579;DHT22;1299;48.282;14.398;2022-07-29T02:32:20;19.50;99.90
2579;DHT22;1299;48.282;14.398;2022-07-29T02:34:49;19.50;99.90
2579;DHT22;1299;48.282;14.398;2022-07-29T02:37:18;19.50;99.90
2579;DHT22;1299;48.282;14.398;2022-07-29T02:39:47;19.50;99.90
2579;DHT22;1299;48.282;14.398;2022-07-29T02:42:17;19.50;99.90
2579;DHT22;1299;48.282;14.398;2022-07-29T02:44:45;19.50;99.90
2579;DHT22;1299;48.282;14.398;2022-07-29T02:47:19;19.60;99.90
2579;DHT22;1299;48.282;14.398;2022-07-29T02:49:53;19.50;99.90
2579;DHT22;1299;48.282;14.398;2022-07-29T02:52:26;19.50;99.90
2579;DHT22;1299;48.282;14.398;2022-07-29T02:54:55;19.50;99.90
2579;DHT22;1299;48.282;14.398;2022-07-29T02:57:32;19.40;99.90
2579;DHT22;1299;48.282;14.398;2022-07-29T03:00:05;19.40;99.90
2579;DHT22;1299;48.282;14.398;2022-07-29T03:02:37;19.40;99.90
2579;DHT22;1299;48.282;14.398;2022-07-29T03:05:08;19.30;99.90
2579;DHT22;1299;48.282;14.398;2022-07-29T03:07:37;19.20;99.90
2579;DHT22;1299;48.282;14.398;2022-07-29T03:10:07;19.30;99.90
2579;DHT22;1299;48.282;14.398;2022-07-29T03:12:36;19.20;99.90
2579;DHT22;1299;48.282;14.398;2022-07-29T03:15:05;19.20;99.90
2579;DHT22;1299;48.282;14.398;2022-07-29T03:17:35;19.20;99.90
2579;DHT22;1299;48.282;14.398;2022-07-29T03:20:05;19.20;99.90
2579;DHT22;1299;48.282;14.398;2022-07-29T03:22:39;19.10;99.90
2579;DHT22;1299;48.282;14.398;2022-07-29T03:25:10;19.10;99.90
2579;DHT22;1299;48.282;14.398;2022-07-29T03:27:37;19.20;99.90
2579;DHT22;1299;48.282;14.398;2022-07-29T03:30:06;19.30;99.90
2579;DHT22;1299;48.282;14.398;2022-07-29T03:32:35;19.20;99.90
2579;DHT22;1299;48.282;14.398;2022-07-29T03:35:04;19.30;99.90
2579;DHT22;1299;48.282;14.398;2022-07-29T03:37:32;19.30;99.90
2579;DHT22;1299;48.282;14.398;2022-07-29T03:40:01;19.30;99.90
2579;DHT22;1299;48.282;14.398;2022-07-29T03:42:31;19.30;99.90
2579;DHT22;1299;48.282;14.398;2022-07-29T03:45:03;19.30;99.90
2579;DHT22;1299;48.282;14.398;2022-07-29T03:47:37;19.30;99.90
2579;DHT22;1299;48.282;14.398;2022-07-29T03:50:06;19.20;99.90
2579;DHT22;1299;48.282;14.398;2022-07-29T03:52:35;19.00;99.90
2579;DHT22;1299;48.282;14.398;2022-07-29T03:55:03;19.10;99.90
2579;DHT22;1299;48.282;14.398;2022-07-29T03:57:31;19.30;99.90
2579;DHT22;1299;48.282;14.398;2022-07-29T04:00:03;19.40;99.90
2579;DHT22;1299;48.282;14.398;2022-07-29T04:02:32;19.40;99.90
2579;DHT22;1299;48.282;14.398;2022-07-29T04:05:01;19.40;99.90
2579;DHT22;1299;48.282;14.398;2022-07-29T04:07:28;19.50;99.90
2579;DHT22;1299;48.282;14.398;2022-07-29T04:09:55;19.60;99.90
2579;DHT22;1299;48.282;14.398;2022-07-29T04:12:22;19.50;99.90
2579;DHT22;1299;48.282;14.398;2022-07-29T04:14:50;19.60;99.90
2579;DHT22;1299;48.282;14.398;2022-07-29T04:17:17;19.60;99.90
2579;DHT22;1299;48.282;14.398;2022-07-29T04:19:44;19.60;99.90
2579;DHT22;1299;48.282;14.398;2022-07-29T04:22:13;19.60;99.90
2579;DHT22;1299;48.282;14.398;2022-07-29T04:24:40;19.60;99.90
2579;DHT22;1299;48.282;14.398;2022-07-29T04:27:07;19.60;99.90
2579;DHT22;1299;48.282;14.398;2022-07-29T04:29:34;19.70;99.90
2579;DHT22;1299;48.282;14.398;2022-07-29T04:32:02;19.70;99.90
2579;DHT22;1299;48.282;14.398;2022-07-29T04:34:29;19.70;99.90
2579;DHT22;1299;48.282;14.398;2022-07-29T04:36:56;19.70;99.90
2579;DHT22;1299;48.282;14.398;2022-07-29T04:39:25;19.70;99.90
2579;DHT22;1299;48.282;14.398;2022-07-29T04:41:52;19.80;99.90
2579;DHT22;1299;48.282;14.398;2022-07-29T04:44:20;19.90;99.90
2579;DHT22;1299;48.282;14.398;2022-07-29T04:46:47;20.00;99.90
2579;DHT22;1299;48.282;14.398;2022-07-29T04:49:14;20.10;99.90
2579;DHT22;1299;48.282;14.398;2022-07-29T04:51:42;20.20;99.90
2579;DHT22;1299;48.282;14.398;2022-07-29T04:54:09;20.20;99.90
2579;DHT22;1299;48.282;14.398;2022-07-29T04:56:38;20.20;99.90
2579;DHT22;1299;48.282;14.398;2022-07-29T04:59:05;20.20;99.90
2579;DHT22;1299;48.282;14.398;2022-07-29T05:01:32;20.30;99.90
2579;DHT22;1299;48.282;14.398;2022-07-29T05:03:59;20.20;99.90
2579;DHT22;1299;48.282;14.398;2022-07-29T05:06:27;20.20;99.90
2579;DHT22;1299;48.282;14.398;2022-07-29T05:08:54;20.10;99.90
2579;DHT22;1299;48.282;14.398;2022-07-29T05:11:21;20.10;99.90
2579;DHT22;1299;48.282;14.398;2022-07-29T05:13:50;20.00;99.90
2579;DHT22;1299;48.282;14.398;2022-07-29T05:16:17;20.10;99.90
2579;DHT22;1299;48.282;14.398;2022-07-29T05:18:44;20.10;99.90
2579;DHT22;1299;48.282;14.398;2022-07-29T05:21:12;20.10;99.90
2579;DHT22;1299;48.282;14.398;2022-07-29T05:23:39;20.20;99.90
2579;DHT22;1299;48.282;14.398;2022-07-29T05:26:06;20.20;99.90
2579;DHT22;1299;48.282;14.398;2022-07-29T05:28:34;20.20;99.90
2579;DHT22;1299;48.282;14.398;2022-07-29T05:31:03;20.30;99.90
2579;DHT22;1299;48.282;14.398;2022-07-29T05:33:30;20.30;99.90
2579;DHT22;1299;48.282;14.398;2022-07-29T05:35:57;20.40;99.90
2579;DHT22;1299;48.282;14.398;2022-07-29T05:38:24;20.40;99.90
2579;DHT22;1299;48.282;14.398;2022-07-29T05:40:51;20.50;99.90
2579;DHT22;1299;48.282;14.398;2022-07-29T05:43:19;20.50;99.90
2579;DHT22;1299;48.282;14.398;2022-07-29T05:45:46;20.60;99.90
2579;DHT22;1299;48.282;14.398;2022-07-29T05:48:15;20.60;99.90
2579;DHT22;1299;48.282;14.398;2022-07-29T05:50:42;20.70;99.90
2579;DHT22;1299;48.282;14.398;2022-07-29T05:53:10;20.70;99.90
2579;DHT22;1299;48.282;14.398;2022-07-29T05:55:37;20.70;99.90
2579;DHT22;1299;48.282;14.398;2022-07-29T05:58:04;20.80;99.90
2579;DHT22;1299;48.282;14.398;2022-07-29T06:00:31;20.70;99.90
2579;DHT22;1299;48.282;14.398;2022-07-29T06:02:59;20.70;99.90
2579;DHT22;1299;48.282;14.398;2022-07-29T06:05:27;20.80;99.90
2579;DHT22;1299;48.282;14.398;2022-07-29T06:07:55;20.90;99.90
2579;DHT22;1299;48.282;14.398;2022-07-29T06:10:22;20.90;99.90
2579;DHT22;1299;48.282;14.398;2022-07-29T06:12:50;20.90;99.90
2579;DHT22;1299;48.282;14.398;2022-07-29T06:15:17;20.90;99.90
2579;DHT22;1299;48.282;14.398;2022-07-29T06:17:45;21.00;99.90
2579;DHT22;1299;48.282;14.398;2022-07-29T06:20:13;21.00;99.90
2579;DHT22;1299;48.282;14.398;2022-07-29T06:22:42;21.00;99.90
2579;DHT22;1299;48.282;14.398;2022-07-29T06:25:09;21.10;99.90
2579;DHT22;1299;48.282;14.398;2022-07-29T06:27:37;21.10;99.90
2579;DHT22;1299;48.282;14.398;2022-07-29T06:30:05;21.20;99.90
2579;DHT22;1299;48.282;14.398;2022-07-29T06:32:33;21.30;99.90
2579;DHT22;1299;48.282;14.398;2022-07-29T06:35:00;21.40;99.90
2579;DHT22;1299;48.282;14.398;2022-07-29T06:37:28;21.50;99.90
2579;DHT22;1299;48.282;14.398;2022-07-29T06:39:56;21.60;99.90
2579;DHT22;1299;48.282;14.398;2022-07-29T06:42:37;21.60;99.90
2579;DHT22;1299;48.282;14.398;2022-07-29T06:45:09;21.80;99.90
2579;DHT22;1299;48.282;14.398;2022-07-29T06:47:37;21.80;99.90
2579;DHT22;1299;48.282;14.398;2022-07-29T06:50:05;21.90;99.90
2579;DHT22;1299;48.282;14.398;2022-07-29T06:52:32;22.00;99.90
2579;DHT22;1299;48.282;14.398;2022-07-29T06:55:01;22.00;99.90
2579;DHT22;1299;48.282;14.398;2022-07-29T06:57:28;22.10;99.90
2579;DHT22;1299;48.282;14.398;2022-07-29T06:59:56;22.20;99.90
2579;DHT22;1299;48.282;14.398;2022-07-29T07:02:23;22.20;99.90
2579;DHT22;1299;48.282;14.398;2022-07-29T07:04:52;22.30;99.90
2579;DHT22;1299;48.282;14.398;2022-07-29T07:07:19;22.40;99.90
2579;DHT22;1299;48.282;14.398;2022-07-29T07:09:46;22.60;99.90
2579;DHT22;1299;48.282;14.398;2022-07-29T07:12:15;22.70;99.90
2579;DHT22;1299;48.282;14.398;2022-07-29T07:14:42;22.70;99.90
2579;DHT22;1299;48.282;14.398;2022-07-29T07:17:09;22.90;99.90
2579;DHT22;1299;48.282;14.398;2022-07-29T07:19:36;23.00;99.90
2579;DHT22;1299;48.282;14.398;2022-07-29T07:22:04;23.00;99.90
2579;DHT22;1299;48.282;14.398;2022-07-29T07:24:31;23.10;99.90
2579;DHT22;1299;48.282;14.398;2022-07-29T07:26:58;23.10;99.90
2579;DHT22;1299;48.282;14.398;2022-07-29T07:29:27;23.10;99.90
2579;DHT22;1299;48.282;14.398;2022-07-29T07:31:55;23.20;99.90
2579;DHT22;1299;48.282;14.398;2022-07-29T07:34:22;23.20;99.90
2579;DHT22;1299;48.282;14.398;2022-07-29T07:36:49;23.30;99.90
2579;DHT22;1299;48.282;14.398;2022-07-29T07:39:16;23.40;99.90
2579;DHT22;1299;48.282;14.398;2022-07-29T07:41:44;23.40;99.90
2579;DHT22;1299;48.282;14.398;2022-07-29T07:44:11;23.30;99.90
2579;DHT22;1299;48.282;14.398;2022-07-29T07:46:39;23.20;99.90
2579;DHT22;1299;48.282;14.398;2022-07-29T07:49:07;23.20;99.90
2579;DHT22;1299;48.282;14.398;2022-07-29T07:51:34;23.20;99.90
2579;DHT22;1299;48.282;14.398;2022-07-29T07:54:01;23.10;99.90
2579;DHT22;1299;48.282;14.398;2022-07-29T07:56:28;23.10;99.90
2579;DHT22;1299;48.282;14.398;2022-07-29T07:58:56;23.20;99.90
2579;DHT22;1299;48.282;14.398;2022-07-29T08:01:23;23.20;99.90
2579;DHT22;1299;48.282;14.398;2022-07-29T08:03:52;23.30;99.90
2579;DHT22;1299;48.282;14.398;2022-07-29T08:06:19;23.30;99.90
2579;DHT22;1299;48.282;14.398;2022-07-29T08:08:46;23.40;99.90
2579;DHT22;1299;48.282;14.398;2022-07-29T08:11:13;23.40;99.90
2579;DHT22;1299;48.282;14.398;2022-07-29T08:13:41;23.50;99.90
2579;DHT22;1299;48.282;14.398;2022-07-29T08:16:08;23.60;99.90
2579;DHT22;1299;48.282;14.398;2022-07-29T08:18:41;23.60;99.90
2579;DHT22;1299;48.282;14.398;2022-07-29T08:21:11;23.70;99.90
2579;DHT22;1299;48.282;14.398;2022-07-29T08:23:39;23.80;99.90
2579;DHT22;1299;48.282;14.398;2022-07-29T08:26:12;23.70;99.90
2579;DHT22;1299;48.282;14.398;2022-07-29T08:28:42;23.90;99.90
2579;DHT22;1299;48.282;14.398;2022-07-29T08:31:12;23.90;99.90
2579;DHT22;1299;48.282;14.398;2022-07-29T08:33:39;24.00;99.90
2579;DHT22;1299;48.282;14.398;2022-07-29T08:36:07;24.00;99.90
2579;DHT22;1299;48.282;14.398;2022-07-29T08:38:37;24.10;99.90
2579;DHT22;1299;48.282;14.398;2022-07-29T08:41:04;24.10;99.90
2579;DHT22;1299;48.282;14.398;2022-07-29T08:43:31;24.20;99.90
2579;DHT22;1299;48.282;14.398;2022-07-29T08:46:00;24.10;99.90
2579;DHT22;1299;48.282;14.398;2022-07-29T08:48:28;24.20;99.90
2579;DHT22;1299;48.282;14.398;2022-07-29T08:50:56;24.30;99.90
2579;DHT22;1299;48.282;14.398;2022-07-29T08:53:26;24.40;99.90
2579;DHT22;1299;48.282;14.398;2022-07-29T08:55:55;24.60;99.90
2579;DHT22;1299;48.282;14.398;2022-07-29T08:58:24;24.10;99.90
2579;DHT22;1299;48.282;14.398;2022-07-29T09:00:53;23.50;99.90
2579;DHT22;1299;48.282;14.398;2022-07-29T09:03:24;23.80;99.90
2579;DHT22;1299;48.282;14.398;2022-07-29T09:05:52;24.30;99.90
2579;DHT22;1299;48.282;14.398;2022-07-29T09:08:20;24.50;99.90
2579;DHT22;1299;48.282;14.398;2022-07-29T09:10:48;24.70;99.90
2579;DHT22;1299;48.282;14.398;2022-07-29T09:13:18;24.90;99.90
2579;DHT22;1299;48.282;14.398;2022-07-29T09:15:45;25.10;99.90
2579;DHT22;1299;48.282;14.398;2022-07-29T09:18:12;25.10;99.90
2579;DHT22;1299;48.282;14.398;2022-07-29T09:21:00;25.30;99.90
2579;DHT22;1299;48.282;14.398;2022-07-29T09:24:01;25.40;99.90
2579;DHT22;1299;48.282;14.398;2022-07-29T09:26:29;25.10;99.90
2579;DHT22;1299;48.282;14.398;2022-07-29T09:28:59;25.40;99.90
2579;DHT22;1299;48.282;14.398;2022-07-29T09:31:35;25.80;99.90
2579;DHT22;1299;48.282;14.398;2022-07-29T09:34:04;25.90;99.90
2579;DHT22;1299;48.282;14.398;2022-07-29T09:36:39;25.90;99.90
2579;DHT22;1299;48.282;14.398;2022-07-29T09:39:07;25.50;99.90
2579;DHT22;1299;48.282;14.398;2022-07-29T09:41:46;25.90;99.90
2579;DHT22;1299;48.282;14.398;2022-07-29T09:44:15;25.70;99.90
2579;DHT22;1299;48.282;14.398;2022-07-29T09:46:54;25.90;99.90
2579;DHT22;1299;48.282;14.398;2022-07-29T09:49:21;26.20;99.90
2579;DHT22;1299;48.282;14.398;2022-07-29T09:51:59;26.40;99.90
2579;DHT22;1299;48.282;14.398;2022-07-29T09:54:27;26.60;99.90
2579;DHT22;1299;48.282;14.398;2022-07-29T09:57:00;26.80;99.90
2579;DHT22;1299;48.282;14.398;2022-07-29T09:59:28;25.90;99.90
2579;DHT22;1299;48.282;14.398;2022-07-29T10:01:56;26.50;99.90
2579;DHT22;1299;48.282;14.398;2022-07-29T10:04:24;26.40;99.90
2579;DHT22;1299;48.282;14.398;2022-07-29T10:07:03;26.00;99.90
2579;DHT22;1299;48.282;14.398;2022-07-29T10:09:31;26.10;99.90
2579;DHT22;1299;48.282;14.398;2022-07-29T10:12:09;26.10;99.90
2579;DHT22;1299;48.282;14.398;2022-07-29T10:14:41;25.80;99.90
2579;DHT22;1299;48.282;14.398;2022-07-29T10:17:10;26.10;99.90
2579;DHT22;1299;48.282;14.398;2022-07-29T10:19:38;26.00;99.90
2579;DHT22;1299;48.282;14.398;2022-07-29T10:22:07;26.00;99.90
2579;DHT22;1299;48.282;14.398;2022-07-29T10:24:36;26.30;99.90
2579;DHT22;1299;48.282;14.398;2022-07-29T10:27:07;26.10;99.90
2579;DHT22;1299;48.282;14.398;2022-07-29T10:29:35;26.20;99.90
2579;DHT22;1299;48.282;14.398;2022-07-29T10:32:21;26.60;99.90
2579;DHT22;1299;48.282;14.398;2022-07-29T10:38:00;27.50;99.90
2579;DHT22;1299;48.282;14.398;2022-07-29T10:40:36;27.80;99.90
2579;DHT22;1299;48.282;14.398;2022-07-29T10:43:28;28.30;99.90
2579;DHT22;1299;48.282;14.398;2022-07-29T10:45:57;28.30;99.90
2579;DHT22;1299;48.282;14.398;2022-07-29T10:48:26;28.60;99.90
2579;DHT22;1299;48.282;14.398;2022-07-29T10:50:55;28.70;99.90
2579;DHT22;1299;48.282;14.398;2022-07-29T10:53:45;28.70;99.90
2579;DHT22;1299;48.282;14.398;2022-07-29T10:56:24;28.90;99.90
2579;DHT22;1299;48.282;14.398;2022-07-29T10:59:25;29.10;99.90
2579;DHT22;1299;48.282;14.398;2022-07-29T11:01:54;29.30;99.90
2579;DHT22;1299;48.282;14.398;2022-07-29T11:05:01;29.40;99.90
2579;DHT22;1299;48.282;14.398;2022-07-29T11:07:29;29.40;99.90
2579;DHT22;1299;48.282;14.398;2022-07-29T11:10:22;29.80;99.90
2579;DHT22;1299;48.282;14.398;2022-07-29T11:12:50;29.80;98.70
2579;DHT22;1299;48.282;14.398;2022-07-29T11:15:20;29.50;99.40
2579;DHT22;1299;48.282;14.398;2022-07-29T11:18:07;29.50;99.90
2579;DHT22;1299;48.282;14.398;2022-07-29T11:20:39;29.90;99.40
2579;DHT22;1299;48.282;14.398;2022-07-29T11:23:21;30.30;98.10
2579;DHT22;1299;48.282;14.398;2022-07-29T11:26:13;29.90;98.20
2579;DHT22;1299;48.282;14.398;2022-07-29T11:28:50;30.40;97.30
2579;DHT22;1299;48.282;14.398;2022-07-29T11:31:32;30.30;96.60
2579;DHT22;1299;48.282;14.398;2022-07-29T11:34:21;30.60;96.20
2579;DHT22;1299;48.282;14.398;2022-07-29T11:40:18;29.60;95.00
2579;DHT22;1299;48.282;14.398;2022-07-29T11:42:51;30.40;97.20
2579;DHT22;1299;48.282;14.398;2022-07-29T11:45:24;31.00;95.40
2579;DHT22;1299;48.282;14.398;2022-07-29T11:47:56;31.00;96.10
2579;DHT22;1299;48.282;14.398;2022-07-29T11:50:30;31.10;96.80
2579;DHT22;1299;48.282;14.398;2022-07-29T11:52:59;31.30;96.90
2579;DHT22;1299;48.282;14.398;2022-07-29T11:55:28;30.60;95.60
2579;DHT22;1299;48.282;14.398;2022-07-29T11:57:58;30.40;94.80
2579;DHT22;1299;48.282;14.398;2022-07-29T12:00:29;30.80;95.00
2579;DHT22;1299;48.282;14.398;2022-07-29T12:02:58;30.40;95.40
2579;DHT22;1299;48.282;14.398;2022-07-29T12:05:38;30.20;96.10
2579;DHT22;1299;48.282;14.398;2022-07-29T12:08:07;31.00;95.30
2579;DHT22;1299;48.282;14.398;2022-07-29T12:10:37;30.40;95.30
2579;DHT22;1299;48.282;14.398;2022-07-29T12:13:04;30.20;94.20
2579;DHT22;1299;48.282;14.398;2022-07-29T12:15:32;30.70;95.60
2579;DHT22;1299;48.282;14.398;2022-07-29T12:18:13;30.50;95.50
2579;DHT22;1299;48.282;14.398;2022-07-29T12:20:41;29.60;96.80
2579;DHT22;1299;48.282;14.398;2022-07-29T12:23:09;29.90;96.20
2579;DHT22;1299;48.282;14.398;2022-07-29T12:25:41;30.60;96.40
2579;DHT22;1299;48.282;14.398;2022-07-29T12:28:11;30.00;95.30
2579;DHT22;1299;48.282;14.398;2022-07-29T12:30:46;30.10;96.30
2579;DHT22;1299;48.282;14.398;2022-07-29T12:33:17;30.10;95.60
2579;DHT22;1299;48.282;14.398;2022-07-29T12:35:47;30.50;94.90
2579;DHT22;1299;48.282;14.398;2022-07-29T12:38:15;30.90;95.80
2579;DHT22;1299;48.282;14.398;2022-07-29T12:40:45;31.00;95.20
2579;DHT22;1299;48.282;14.398;2022-07-29T12:43:14;30.30;94.30
2579;DHT22;1299;48.282;14.398;2022-07-29T12:45:43;30.40;95.50
2579;DHT22;1299;48.282;14.398;2022-07-29T12:48:11;31.20;95.60
2579;DHT22;1299;48.282;14.398;2022-07-29T12:50:56;31.80;95.70
2579;DHT22;1299;48.282;14.398;2022-07-29T12:53:24;31.80;94.80
2579;DHT22;1299;48.282;14.398;2022-07-29T12:55:55;31.70;94.50
2579;DHT22;1299;48.282;14.398;2022-07-29T12:58:31;31.50;93.80
2579;DHT22;1299;48.282;14.398;2022-07-29T13:01:07;31.50;94.10
2579;DHT22;1299;48.282;14.398;2022-07-29T13:03:46;31.10;93.90
2579;DHT22;1299;48.282;14.398;2022-07-29T13:06:32;31.00;93.60
2579;DHT22;1299;48.282;14.398;2022-07-29T13:09:06;30.40;93.70
2579;DHT22;1299;48.282;14.398;2022-07-29T13:11:36;29.80;92.90
2579;DHT22;1299;48.282;14.398;2022-07-29T13:14:05;30.10;93.70
2579;DHT22;1299;48.282;14.398;2022-07-29T13:16:34;29.60;93.00
2579;DHT22;1299;48.282;14.398;2022-07-29T13:19:07;30.00;91.70
2579;DHT22;1299;48.282;14.398;2022-07-29T13:21:37;30.00;91.90
2579;DHT22;1299;48.282;14.398;2022-07-29T13:24:06;30.30;92.20
2579;DHT22;1299;48.282;14.398;2022-07-29T13:26:36;29.90;93.40
2579;DHT22;1299;48.282;14.398;2022-07-29T13:29:06;29.90;93.00
2579;DHT22;1299;48.282;14.398;2022-07-29T13:31:33;29.60;93.80
2579;DHT22;1299;48.282;14.398;2022-07-29T13:34:01;30.30;93.70
2579;DHT22;1299;48.282;14.398;2022-07-29T13:36:28;29.90;95.10
2579;DHT22;1299;48.282;14.398;2022-07-29T13:38:55;30.10;95.80
2579;DHT22;1299;48.282;14.398;2022-07-29T13:41:22;30.20;95.60
2579;DHT22;1299;48.282;14.398;2022-07-29T13:43:51;30.00;95.00
2579;DHT22;1299;48.282;14.398;2022-07-29T13:46:18;29.80;95.60
2579;DHT22;1299;48.282;14.398;2022-07-29T13:48:45;30.30;95.80
2579;DHT22;1299;48.282;14.398;2022-07-29T13:51:12;30.40;94.50
2579;DHT22;1299;48.282;14.398;2022-07-29T13:53:40;30.50;94.70
2579;DHT22;1299;48.282;14.398;2022-07-29T13:56:07;30.40;92.10
2579;DHT22;1299;48.282;14.398;2022-07-29T13:58:34;29.60;92.20
2579;DHT22;1299;48.282;14.398;2022-07-29T14:01:03;30.20;92.30
2579;DHT22;1299;48.282;14.398;2022-07-29T14:03:30;30.10;92.50
2579;DHT22;1299;48.282;14.398;2022-07-29T14:05:57;30.50;92.90
2579;DHT22;1299;48.282;14.398;2022-07-29T14:08:26;30.70;92.10
2579;DHT22;1299;48.282;14.398;2022-07-29T14:10:53;30.40;92.00
2579;DHT22;1299;48.282;14.398;2022-07-29T14:13:20;30.60;92.00
2579;DHT22;1299;48.282;14.398;2022-07-29T14:15:49;31.00;92.00
2579;DHT22;1299;48.282;14.398;2022-07-29T14:18:17;30.40;90.60
2579;DHT22;1299;48.282;14.398;2022-07-29T14:20:45;30.50;91.00
2579;DHT22;1299;48.282;14.398;2022-07-29T14:23:12;30.60;90.90
2579;DHT22;1299;48.282;14.398;2022-07-29T14:25:39;30.30;89.40
2579;DHT22;1299;48.282;14.398;2022-07-29T14:28:07;30.00;90.30
2579;DHT22;1299;48.282;14.398;2022-07-29T14:30:34;30.00;90.60
2579;DHT22;1299;48.282;14.398;2022-07-29T14:33:01;30.00;90.00
2579;DHT22;1299;48.282;14.398;2022-07-29T14:35:30;30.50;88.70
2579;DHT22;1299;48.282;14.398;2022-07-29T14:37:57;30.50;88.70
2579;DHT22;1299;48.282;14.398;2022-07-29T14:40:24;30.30;88.20
2579;DHT22;1299;48.282;14.398;2022-07-29T14:42:52;30.50;88.10
2579;DHT22;1299;48.282;14.398;2022-07-29T14:45:20;29.90;91.20
2579;DHT22;1299;48.282;14.398;2022-07-29T14:47:48;29.90;89.80
2579;DHT22;1299;48.282;14.398;2022-07-29T14:50:16;29.90;90.20
2579;DHT22;1299;48.282;14.398;2022-07-29T14:52:46;30.10;90.10
2579;DHT22;1299;48.282;14.398;2022-07-29T14:55:13;29.70;91.30
2579;DHT22;1299;48.282;14.398;2022-07-29T14:57:40;29.60;91.30
2579;DHT22;1299;48.282;14.398;2022-07-29T15:00:09;29.80;91.70
2579;DHT22;1299;48.282;14.398;2022-07-29T15:02:37;29.70;90.50
2579;DHT22;1299;48.282;14.398;2022-07-29T15:05:05;29.70;90.30
2579;DHT22;1299;48.282;14.398;2022-07-29T15:07:32;29.40;90.60
2579;DHT22;1299;48.282;14.398;2022-07-29T15:10:01;29.60;90.90
2579;DHT22;1299;48.282;14.398;2022-07-29T15:12:30;29.60;90.10
2579;DHT22;1299;48.282;14.398;2022-07-29T15:14:57;29.60;90.40
2579;DHT22;1299;48.282;14.398;2022-07-29T15:17:24;29.60;90.20
2579;DHT22;1299;48.282;14.398;2022-07-29T15:19:51;29.60;89.40
2579;DHT22;1299;48.282;14.398;2022-07-29T15:22:19;29.70;91.10
2579;DHT22;1299;48.282;14.398;2022-07-29T15:24:46;29.90;91.20
2579;DHT22;1299;48.282;14.398;2022-07-29T15:27:15;29.70;90.60
2579;DHT22;1299;48.282;14.398;2022-07-29T15:29:43;29.40;90.70
2579;DHT22;1299;48.282;14.398;2022-07-29T15:32:11;29.30;91.00
2579;DHT22;1299;48.282;14.398;2022-07-29T15:34:38;29.40;92.00
2579;DHT22;1299;48.282;14.398;2022-07-29T15:37:05;29.40;91.60
2579;DHT22;1299;48.282;14.398;2022-07-29T15:39:33;29.50;90.40
2579;DHT22;1299;48.282;14.398;2022-07-29T15:42:00;29.40;90.30
2579;DHT22;1299;48.282;14.398;2022-07-29T15:44:30;29.10;91.30
2579;DHT22;1299;48.282;14.398;2022-07-29T15:47:04;29.10;90.60
2579;DHT22;1299;48.282;14.398;2022-07-29T15:49:33;29.10;90.40
2579;DHT22;1299;48.282;14.398;2022-07-29T15:52:02;29.10;88.90
2579;DHT22;1299;48.282;14.398;2022-07-29T15:54:32;29.30;90.60
2579;DHT22;1299;48.282;14.398;2022-07-29T15:56:59;29.00;90.00
2579;DHT22;1299;48.282;14.398;2022-07-29T15:59:27;29.10;88.40
2579;DHT22;1299;48.282;14.398;2022-07-29T16:01:56;29.10;89.20
2579;DHT22;1299;48.282;14.398;2022-07-29T16:04:24;29.10;90.30
2579;DHT22;1299;48.282;14.398;2022-07-29T16:06:51;29.40;89.80
2579;DHT22;1299;48.282;14.398;2022-07-29T16:09:19;29.30;90.60
2579;DHT22;1299;48.282;14.398;2022-07-29T16:11:46;28.90;90.10
2579;DHT22;1299;48.282;14.398;2022-07-29T16:14:16;29.10;91.00